Time;durP1;ratioP1;P1;durP2;ratioP2;P2;SDS_P1;SDS_P2;PMS_P1;PMS_P2;Temp;Humidity;BMP_temperature;BMP_pressure;BME280_temperature;BME280_humidity;BME280_pressure;Samples;Min_cycle;Max_cycle;Signal;HPM_P1;HPM_P2
2022/06/03 00:02:01;;;;;;;4.03;2.70;;;;;;;21.79;39.72;100786.22;5297394;33;34735;-68
2022/06/03 00:05:36;;;;;;;3.65;2.40;;;;;;;22.10;39.10;100779.28;5311542;32;35433;-67
2022/06/03 00:09:06;;;;;;;4.70;2.50;;;;;;;22.10;39.16;100785.50;5321175;32;34643;-73
2022/06/03 00:12:13;;;;;;;5.40;2.83;;;;;;;21.77;39.57;100777.47;5393405;32;36906;-68
2022/06/03 00:15:36;;;;;;;7.12;2.60;;;;;;;21.77;39.47;100777.47;5387018;32;34119;-69
2022/06/03 00:18:53;;;;;;;4.55;2.47;;;;;;;22.26;38.34;100774.38;5386018;32;34250;-67
2022/06/03 00:22:13;;;;;;;4.05;2.37;;;;;;;22.22;38.83;100780.09;5376225;32;45070;-68
2022/06/03 00:25:34;;;;;;;5.93;2.50;;;;;;;21.89;39.59;100803.22;5371502;32;35273;-73
2022/06/03 00:28:46;;;;;;;8.60;3.40;;;;;;;21.76;39.76;100797.16;5401829;32;33505;-72
2022/06/03 00:32:33;;;;;;;4.70;2.67;;;;;;;21.28;40.95;100806.22;5369218;32;34936;-73
2022/06/03 00:35:35;;;;;;;5.12;2.70;;;;;;;21.26;41.03;100809.97;5375337;32;35375;-67
2022/06/03 00:38:57;;;;;;;7.12;3.00;;;;;;;21.88;40.35;100806.87;5374296;32;34513;-69
2022/06/03 00:42:02;;;;;;;4.95;2.75;;;;;;;21.21;41.64;100801.44;5366106;32;44117;-72
2022/06/03 00:45:37;;;;;;;5.28;2.50;;;;;;;21.39;41.35;100810.75;5399447;32;35207;-67
2022/06/03 00:48:58;;;;;;;3.92;2.62;;;;;;;22.24;39.71;100803.09;5369673;32;35445;-74
2022/06/03 00:52:28;;;;;;;7.68;3.45;;;;;;;22.58;39.02;100813.72;5383626;32;34105;-73
2022/06/03 00:56:04;;;;;;;4.70;2.53;;;;;;;22.49;39.07;100818.03;5399485;32;34327;-67
2022/06/03 00:59:15;;;;;;;5.37;2.72;;;;;;;21.22;41.83;100827.19;5365824;32;34011;-67
2022/06/03 01:02:21;;;;;;;5.03;2.72;;;;;;;21.66;40.61;100822.94;5379301;32;34244;-71
2022/06/03 01:05:29;;;;;;;4.10;2.40;;;;;;;20.85;42.85;100818.44;5388440;32;44640;-71
2022/06/03 01:08:50;;;;;;;5.20;2.75;;;;;;;21.95;40.63;100817.94;5384839;32;35187;-71
2022/06/03 01:11:56;;;;;;;4.72;2.80;;;;;;;21.94;40.46;100819.78;5384440;32;46573;-66
2022/06/03 01:15:10;;;;;;;4.50;2.85;;;;;;;21.83;40.71;100819.75;5383564;32;34088;-68
2022/06/03 01:18:25;;;;;;;6.47;3.40;;;;;;;22.09;40.46;100820.37;5376057;32;34086;-67
2022/06/03 01:21:56;;;;;;;6.93;3.00;;;;;;;22.30;39.77;100813.31;5376091;32;42585;-74
2022/06/03 01:25:27;;;;;;;8.70;3.12;;;;;;;21.83;40.45;100820.66;5364711;32;44403;-69
2022/06/03 01:28:51;;;;;;;6.72;2.90;;;;;;;21.56;41.43;100828.12;5388320;32;35793;-69
2022/06/03 01:32:23;;;;;;;5.62;2.90;;;;;;;21.57;41.30;100819.16;5396588;32;46597;-67
2022/06/03 01:35:25;;;;;;;6.20;2.90;;;;;;;21.98;40.68;100828.41;5365231;32;44630;-73
2022/06/03 01:38:58;;;;;;;3.30;2.50;;;;;;;21.57;41.47;100840.53;5373375;32;34117;-73
2022/06/03 01:42:15;;;;;;;5.15;3.03;;;;;;;21.00;43.25;100841.38;5367832;32;34522;-69
2022/06/03 01:45:51;;;;;;;7.55;2.80;;;;;;;21.90;41.53;100839.75;5383099;32;35390;-68
2022/06/03 01:48:56;;;;;;;7.03;3.53;;;;;;;21.53;42.38;100833.75;5399514;32;35353;-68
2022/06/03 01:52:17;;;;;;;5.35;2.83;;;;;;;21.96;41.43;100846.41;5383205;32;34156;-72
2022/06/03 01:56:14;;;;;;;8.70;3.20;;;;;;;22.12;41.00;100852.28;5380005;32;34502;-69
2022/06/03 01:59:24;;;;;;;16.65;3.03;;;;;;;21.53;42.04;100850.63;5400264;32;34116;-71
2022/06/03 02:02:53;;;;;;;3.80;2.47;;;;;;;20.73;43.42;100870.97;5379887;32;47076;-73
2022/06/03 02:06:14;;;;;;;7.50;3.05;;;;;;;20.97;43.47;100860.28;5381892;32;44420;-68
2022/06/03 02:09:35;;;;;;;4.80;2.65;;;;;;;20.63;44.35;100860.13;5399366;32;34312;-67
2022/06/03 02:12:50;;;;;;;5.43;3.03;;;;;;;21.12;43.04;100845.75;5383682;32;34355;-72
2022/06/03 02:16:26;;;;;;;5.75;3.30;;;;;;;20.61;44.90;100855.84;5372400;32;46355;-67
2022/06/03 02:20:06;;;;;;;7.05;3.30;;;;;;;21.15;43.93;100848.19;5377363;32;44726;-73
2022/06/03 02:23:14;;;;;;;7.45;3.50;;;;;;;21.62;43.07;100844.56;5379914;32;36557;-68
2022/06/03 02:26:31;;;;;;;5.68;2.95;;;;;;;20.95;44.20;100849.72;5400006;32;34632;-67
2022/06/03 02:33:36;;;;;;;6.68;2.97;;;;;;;21.65;43.09;100853.34;5380624;32;34761;-67
2022/06/03 02:37:10;;;;;;;5.82;3.03;;;;;;;21.21;44.40;100853.09;5400877;32;36005;-74
2022/06/03 02:40:38;;;;;;;5.82;2.90;;;;;;;20.62;45.42;100862.91;5350295;32;34673;-68
2022/06/03 02:44:02;;;;;;;8.18;3.10;;;;;;;21.34;43.44;100855.72;5385059;32;35119;-67
2022/06/03 02:47:40;;;;;;;7.80;3.12;;;;;;;21.30;44.10;100854.22;5386403;32;34151;-68
2022/06/03 02:50:58;;;;;;;5.50;2.58;;;;;;;20.26;46.34;100861.91;5351853;32;34653;-72
2022/06/03 02:54:33;;;;;;;7.47;3.37;;;;;;;20.31;46.41;100859.75;5370993;32;34197;-67
2022/06/03 02:58:11;;;;;;;7.35;2.90;;;;;;;20.23;46.65;100859.47;5378039;32;34253;-72
2022/06/03 03:01:54;;;;;;;6.25;3.20;;;;;;;20.41;46.75;100865.28;5370867;32;32281;-67
2022/06/03 03:05:21;;;;;;;6.45;3.20;;;;;;;20.42;46.72;100867.00;5358760;32;35204;-73
2022/06/03 03:08:35;;;;;;;12.93;3.50;;;;;;;19.92;48.49;100869.66;5370393;32;44786;-74
2022/06/03 03:11:50;;;;;;;6.57;3.00;;;;;;;19.42;49.92;100865.13;5383747;32;34144;-72
2022/06/03 03:15:13;;;;;;;5.07;3.35;;;;;;;19.66;49.73;100862.62;5387506;32;44709;-71
2022/06/03 03:18:24;;;;;;;5.97;2.90;;;;;;;20.25;48.00;100877.06;5385652;32;36676;-68
2022/06/03 03:21:41;;;;;;;6.43;3.42;;;;;;;19.62;50.11;100882.44;5369900;32;46175;-71
2022/06/03 03:25:21;;;;;;;6.25;3.92;;;;;;;19.97;49.08;100883.53;5398273;32;34001;-72
2022/06/03 03:29:08;;;;;;;4.80;3.05;;;;;;;19.30;51.06;100888.13;5396239;32;34363;-67
2022/06/03 03:32:40;;;;;;;5.25;2.97;;;;;;;19.45;50.25;100887.13;5330654;32;34582;-67
2022/06/03 03:35:57;;;;;;;5.85;3.22;;;;;;;19.17;50.93;100892.59;5379297;32;35708;-67
2022/06/03 03:39:12;;;;;;;6.68;3.30;;;;;;;18.67;52.35;100894.94;5364578;32;32932;-70
2022/06/03 03:42:29;;;;;;;5.65;3.08;;;;;;;19.40;50.25;100899.88;5383525;32;35225;-67
2022/06/03 03:45:50;;;;;;;4.97;3.20;;;;;;;19.81;49.48;100901.56;5400463;32;34311;-72
2022/06/03 03:48:58;;;;;;;;;;;;;;;19.59;50.37;100906.69;5386159;32;44477;-73
2022/06/03 03:52:17;;;;;;;5.65;3.20;;;;;;;19.42;50.95;100911.28;5385328;32;34240;-68
2022/06/03 03:56:00;;;;;;;5.72;3.28;;;;;;;19.53;51.01;100909.72;5400231;32;35011;-67
2022/06/03 03:59:39;;;;;;;13.00;3.95;;;;;;;19.08;52.66;100906.53;5355503;32;33987;-73
2022/06/03 04:02:56;;;;;;;6.32;2.95;;;;;;;19.84;50.50;100890.69;5378819;32;35482;-67
2022/06/03 04:06:36;;;;;;;8.52;3.25;;;;;;;19.73;51.25;100890.56;5384800;32;46561;-72
2022/06/03 04:10:15;;;;;;;7.25;3.40;;;;;;;19.97;50.51;100898.69;5376600;32;34109;-72
2022/06/03 04:13:47;;;;;;;5.50;3.37;;;;;;;20.20;50.30;100905.91;5385420;32;35542;-73
2022/06/03 04:17:25;;;;;;;6.57;3.47;;;;;;;19.93;50.94;100907.84;5368413;32;35318;-71
2022/06/03 04:21:05;;;;;;;5.97;3.40;;;;;;;20.16;50.55;100916.91;5361572;32;34518;-71
2022/06/03 04:24:16;;;;;;;9.50;3.87;;;;;;;20.32;49.99;100904.19;5373008;32;35798;-67
2022/06/03 04:27:40;;;;;;;8.65;4.00;;;;;;;21.65;46.76;100910.34;5386530;32;46979;-72
2022/06/03 04:31:08;;;;;;;5.97;2.95;;;;;;;22.06;45.03;100906.28;5365030;32;34318;-66
2022/06/03 04:34:28;;;;;;;5.22;3.22;;;;;;;20.47;49.31;100916.44;5391423;32;34675;-74
2022/06/03 04:37:52;;;;;;;8.35;3.25;;;;;;;21.35;47.15;100916.22;5394520;32;35280;-72
2022/06/03 04:41:26;;;;;;;7.12;3.45;;;;;;;22.88;43.70;100914.87;5351679;32;44517;-73
2022/06/03 04:44:51;;;;;;;6.22;3.20;;;;;;;23.66;41.50;100917.22;5390355;32;46940;-73
2022/06/03 04:48:29;;;;;;;6.55;3.12;;;;;;;23.69;41.59;100911.59;5393822;32;44490;-67
2022/06/03 04:52:06;;;;;;;4.75;3.40;;;;;;;23.21;42.51;100922.78;5382429;32;34104;-69
2022/06/03 04:55:30;;;;;;;8.50;3.92;;;;;;;24.50;40.10;100917.94;5382663;32;35131;-69
2022/06/03 04:58:38;;;;;;;7.82;3.42;;;;;;;24.30;40.18;100911.63;5397498;32;34083;-68
2022/06/03 05:01:48;;;;;;;6.22;3.33;;;;;;;24.09;40.50;100912.66;5382596;32;35438;-72
2022/06/03 05:05:06;;;;;;;6.78;3.22;;;;;;;23.87;41.16;100911.00;5385779;32;45091;-73
2022/06/03 05:08:37;;;;;;;6.62;3.58;;;;;;;24.25;40.60;100916.53;5379488;32;35514;-73
2022/06/03 05:11:58;;;;;;;7.80;3.50;;;;;;;24.18;40.52;100920.75;5382930;32;35504;-73
2022/06/03 05:15:33;;;;;;;7.50;3.28;;;;;;;25.01;38.79;100921.44;5398197;32;32810;-74
2022/06/03 05:19:02;;;;;;;6.75;3.40;;;;;;;25.17;38.15;100921.75;5328626;32;34189;-73
2022/06/03 05:22:25;;;;;;;4.95;3.17;;;;;;;26.28;36.40;100917.59;5376286;32;34344;-69
2022/06/03 05:25:39;;;;;;;5.15;2.90;;;;;;;26.47;36.14;100922.94;5382380;32;47350;-68
2022/06/03 05:29:29;;;;;;;5.35;2.97;;;;;;;27.04;34.48;100930.78;5384004;32;34242;-68
2022/06/03 05:32:59;;;;;;;4.60;2.65;;;;;;;25.44;37.20;100939.91;5328879;32;34151;-79
2022/06/03 05:36:28;;;;;;;8.38;3.83;;;;;;;26.56;35.51;100950.81;5397554;32;34231;-69
2022/06/03 05:39:47;;;;;;;6.07;3.40;;;;;;;26.17;36.42;100945.56;5349973;32;34168;-71
2022/06/03 05:43:13;;;;;;;10.05;3.62;;;;;;;24.57;39.66;100954.03;5380510;32;35328;-70
2022/06/03 05:46:36;;;;;;;7.95;3.50;;;;;;;23.93;40.80;100948.03;5392780;32;34752;-79
2022/06/03 05:49:50;;;;;;;7.72;4.25;;;;;;;26.87;35.29;100944.12;5370647;32;34281;-77
2022/06/03 05:53:14;;;;;;;8.75;3.70;;;;;;;26.94;35.01;100941.66;5368458;32;44465;-68
2022/06/03 05:56:51;;;;;;;6.28;3.20;;;;;;;26.70;35.31;100951.16;5372269;32;35402;-68
2022/06/03 06:00:29;;;;;;;7.15;3.70;;;;;;;26.14;36.28;100946.69;5370345;32;34510;-68
2022/06/03 06:03:58;;;;;;;7.95;3.53;;;;;;;28.29;32.30;100947.66;5393539;32;34535;-72
2022/06/03 06:07:22;;;;;;;8.50;3.80;;;;;;;27.74;33.30;100939.88;5384355;32;34751;-67
2022/06/03 06:10:30;;;;;;;6.85;3.28;;;;;;;27.18;34.58;100947.34;5380214;32;44369;-66
2022/06/03 06:14:09;;;;;;;7.50;3.50;;;;;;;29.58;30.50;100945.50;5393995;32;33969;-65
2022/06/03 06:17:50;;;;;;;9.43;3.40;;;;;;;27.73;33.51;100935.50;5376118;32;35498;-71
2022/06/03 06:21:29;;;;;;;10.20;3.50;;;;;;;28.31;32.42;100926.75;5379393;32;34861;-66
2022/06/03 06:24:34;;;;;;;8.57;3.50;;;;;;;28.69;31.27;100921.81;5393435;32;34215;-67
2022/06/03 06:27:57;;;;;;;9.60;4.07;;;;;;;27.61;33.40;100934.03;5377729;32;34036;-74
2022/06/03 06:31:11;;;;;;;8.68;3.75;;;;;;;29.00;31.08;100927.50;5379949;32;44563;-68
2022/06/03 06:34:27;;;;;;;5.85;3.45;;;;;;;28.00;33.07;100942.59;5396769;32;34211;-65
2022/06/03 06:37:50;;;;;;;9.27;3.90;;;;;;;29.42;30.27;100935.47;5364822;32;44618;-66
2022/06/03 06:40:55;;;;;;;5.20;3.20;;;;;;;31.15;27.58;100923.94;5378349;32;43039;-69
2022/06/03 06:44:20;;;;;;;8.75;3.30;;;;;;;32.30;25.95;100919.97;5383881;32;34741;-71
2022/06/03 06:47:26;;;;;;;7.75;3.10;;;;;;;32.72;25.13;100914.84;5378754;32;46714;-72
2022/06/03 06:50:54;;;;;;;8.57;4.30;;;;;;;30.88;27.76;100919.88;5381562;32;35299;-71
2022/06/03 06:53:59;;;;;;;4.53;2.72;;;;;;;31.44;26.08;100915.94;5364024;32;47005;-68
2022/06/03 06:57:06;;;;;;;7.07;2.62;;;;;;;33.01;23.62;100914.78;5403265;32;34059;-68
2022/06/03 07:00:25;;;;;;;8.50;3.10;;;;;;;29.96;27.57;100908.72;5385657;32;34058;-67
2022/06/03 07:03:47;;;;;;;10.68;3.20;;;;;;;30.37;27.47;100908.59;5383879;32;44646;-75
2022/06/03 07:06:55;;;;;;;;;;;;;;;30.99;26.30;100914.06;5397545;32;35201;-75
2022/06/03 07:10:06;;;;;;;6.85;2.75;;;;;;;31.77;25.38;100900.16;5377149;32;44643;-68
2022/06/03 07:13:32;;;;;;;5.60;2.83;;;;;;;32.38;23.82;100907.31;5389440;32;33974;-68
2022/06/03 07:20:16;;;;;;;6.18;2.50;;;;;;;31.24;23.69;100904.72;5382165;32;33907;-69
2022/06/03 07:23:38;;;;;;;4.93;2.20;;;;;;;32.31;21.97;100899.88;5379506;32;34257;-68
2022/06/03 07:26:50;;;;;;;5.70;2.22;;;;;;;33.04;21.42;100900.81;5383579;32;35393;-73
2022/06/03 07:30:12;;;;;;;3.60;2.22;;;;;;;31.62;22.73;100898.44;5363037;32;44564;-72
2022/06/03 07:33:21;;;;;;;6.85;2.33;;;;;;;33.05;21.00;100886.16;5397156;32;35413;-70
2022/06/03 07:36:34;;;;;;;5.10;2.33;;;;;;;34.31;19.76;100878.88;5382697;32;47036;-69
2022/06/03 07:39:53;;;;;;;4.05;2.08;;;;;;;31.89;22.51;100886.16;5359182;32;35121;-74
2022/06/03 07:43:09;;;;;;;2.62;1.90;;;;;;;34.86;18.65;100878.88;5395779;32;44680;-69
2022/06/03 07:46:25;;;;;;;3.80;2.12;;;;;;;35.11;18.49;100877.28;5365933;32;35589;-73
2022/06/03 07:49:30;;;;;;;6.22;2.17;;;;;;;34.88;18.52;100874.06;5392845;32;46433;-77
2022/06/03 07:52:38;;;;;;;3.08;2.17;;;;;;;35.03;18.26;100882.06;5382243;32;36028;-73
2022/06/03 07:55:40;;;;;;;2.72;1.98;;;;;;;32.78;20.70;100895.91;5373629;32;35152;-73
2022/06/03 07:58:51;;;;;;;7.18;2.62;;;;;;;33.91;19.53;100878.69;5394241;32;34098;-72
2022/06/03 08:02:01;;;;;;;;;;;;;;;33.39;20.45;100879.12;5366605;32;44593;-69
2022/06/03 08:05:11;;;;;;;4.40;2.08;;;;;;;34.80;18.88;100876.97;5386403;32;34304;-73
2022/06/03 08:11:43;;;;;;;2.87;1.80;;;;;;;36.17;17.44;100868.94;5387022;32;34480;-70
2022/06/03 08:14:45;;;;;;;2.95;2.25;;;;;;;37.59;16.04;100873.12;5375140;32;34906;-73
2022/06/03 08:17:49;;;;;;;3.85;2.10;;;;;;;36.94;16.72;100879.97;5377364;32;34061;-73
2022/06/03 08:20:56;;;;;;;4.37;2.03;;;;;;;36.38;17.20;100867.81;5380330;32;44906;-72
2022/06/03 08:23:59;;;;;;;5.10;2.33;;;;;;;36.72;16.98;100868.50;5367041;32;34875;-76
2022/06/03 08:27:15;;;;;;;54.22;4.43;;;;;;;34.57;19.65;100880.06;5396390;32;34030;-67
2022/06/03 08:30:22;;;;;;;7.82;2.50;;;;;;;34.95;19.43;100872.19;5371610;32;34251;-74
2022/06/03 08:33:34;;;;;;;4.75;2.17;;;;;;;36.49;17.82;100864.41;5387000;32;47203;-67
2022/06/03 08:36:39;;;;;;;11.85;2.65;;;;;;;36.18;18.03;100859.69;5395062;32;35463;-70
2022/06/03 08:39:43;;;;;;;7.35;2.85;;;;;;;34.23;20.40;100862.69;5329364;32;33986;-68
2022/06/03 08:43:30;;;;;;;5.35;2.50;;;;;;;35.58;19.11;100869.09;5393470;32;35352;-70
2022/06/03 08:46:38;;;;;;;2.83;1.98;;;;;;;35.47;18.87;100849.53;5364102;32;35904;-74
2022/06/03 08:49:55;;;;;;;4.72;2.08;;;;;;;37.27;16.80;100852.31;5380776;32;35569;-75
2022/06/03 08:53:00;;;;;;;10.27;3.42;;;;;;;34.14;20.86;100850.28;5370608;32;46544;-73
2022/06/03 08:56:11;;;;;;;3.12;1.98;;;;;;;35.20;19.48;100854.16;5379163;32;33894;-67
2022/06/03 08:59:21;;;;;;;3.90;2.20;;;;;;;37.90;17.00;100847.50;5367618;32;35429;-71
2022/06/03 09:02:31;;;;;;;6.68;2.20;;;;;;;37.87;16.74;100850.72;5387818;32;45213;-74
2022/06/03 09:05:42;;;;;;;2.95;1.95;;;;;;;35.39;19.39;100851.63;5363253;32;36109;-68
2022/06/03 09:08:54;;;;;;;6.22;2.05;;;;;;;36.18;17.69;100847.91;5366824;32;34419;-68
2022/06/03 09:12:02;;;;;;;4.50;2.35;;;;;;;37.44;17.02;100864.44;5372747;32;46743;-68
2022/06/03 09:15:21;;;;;;;4.82;2.20;;;;;;;35.95;18.86;100860.19;5383275;32;33845;-72
2022/06/03 09:18:24;;;;;;;3.30;2.20;;;;;;;34.31;20.07;100850.75;5382441;32;44649;-68
2022/06/03 09:21:31;;;;;;;4.35;2.03;;;;;;;34.78;19.96;100841.69;5381610;32;34204;-68
2022/06/03 09:24:35;;;;;;;3.95;1.98;;;;;;;37.99;16.70;100834.31;5380790;32;33942;-72
2022/06/03 09:27:41;;;;;;;6.35;2.20;;;;;;;36.06;18.19;100845.84;5381468;32;35342;-74
2022/06/03 09:30:45;;;;;;;5.07;2.20;;;;;;;38.93;15.72;100835.59;5392406;32;34243;-68
2022/06/03 09:33:51;;;;;;;7.22;2.10;;;;;;;36.97;17.50;100836.56;5376874;32;46558;-69
2022/06/03 09:36:53;;;;;;;2.17;1.90;;;;;;;36.14;18.39;100846.69;5353932;32;34505;-69
2022/06/03 09:40:19;;;;;;;3.55;2.00;;;;;;;35.64;18.52;100841.75;5362000;32;35579;-71
2022/06/03 09:43:31;;;;;;;6.18;2.15;;;;;;;37.77;16.77;100831.19;5375981;32;46834;-71
2022/06/03 09:46:34;;;;;;;4.72;2.30;;;;;;;38.07;16.58;100841.41;5377654;32;34840;-69
2022/06/03 09:49:36;;;;;;;4.68;2.10;;;;;;;38.79;16.15;100838.78;5367280;32;34270;-72
2022/06/03 09:52:39;;;;;;;8.05;2.87;;;;;;;36.60;18.13;100852.78;5360717;32;33983;-73
2022/06/03 09:55:43;;;;;;;4.62;2.42;;;;;;;35.36;18.92;100860.22;5382840;32;34254;-74
2022/06/03 09:58:49;;;;;;;2.58;2.00;;;;;;;35.68;18.86;100853.94;5362640;32;35799;-74
2022/06/03 10:01:52;;;;;;;2.45;1.85;;;;;;;36.70;17.21;100851.44;5372811;32;44524;-74
2022/06/03 10:04:55;;;;;;;3.92;1.90;;;;;;;37.42;16.38;100855.59;5364315;32;34136;-73
2022/06/03 10:08:02;;;;;;;3.30;1.90;;;;;;;37.33;16.49;100843.19;5373624;32;34447;-67
2022/06/03 10:14:28;;;;;;;4.65;1.83;;;;;;;38.20;15.94;100864.03;5357514;32;45942;-74
2022/06/03 10:17:30;;;;;;;3.33;2.17;;;;;;;38.57;15.54;100847.50;5391234;32;33961;-67
2022/06/03 10:20:43;;;;;;;5.87;1.90;;;;;;;36.92;17.51;100850.06;5363168;32;34049;-67
2022/06/03 10:23:46;;;;;;;6.40;3.67;;;;;;;37.60;16.85;100841.88;5365044;32;35174;-73
2022/06/03 10:27:00;;;;;;;6.25;2.05;;;;;;;37.82;16.50;100828.62;5387409;32;44209;-68
2022/06/03 10:30:05;;;;;;;3.15;1.90;;;;;;;36.80;17.18;100832.63;5361138;32;34223;-68
2022/06/03 10:33:18;;;;;;;2.28;1.90;;;;;;;40.28;14.36;100848.34;5362293;32;33999;-68
2022/06/03 10:36:31;;;;;;;7.70;2.40;;;;;;;37.53;16.98;100848.50;5365545;32;44540;-67
2022/06/03 10:39:34;;;;;;;2.50;1.92;;;;;;;40.11;14.49;100836.41;5357544;32;34566;-68
2022/06/03 10:42:36;;;;;;;3.70;1.90;;;;;;;39.24;15.17;100831.72;5370839;32;33949;-75
2022/06/03 10:45:39;;;;;;;4.80;2.20;;;;;;;37.48;16.92;100840.13;5364425;32;34365;-69
2022/06/03 10:48:42;;;;;;;4.68;2.10;;;;;;;37.87;16.40;100836.13;5376838;32;35681;-73
2022/06/03 11:02:04;;;;;;;4.40;2.20;;;;;;;37.73;16.51;100812.66;5375630;32;34906;-73
2022/06/03 11:05:13;;;;;;;3.55;2.30;;;;;;;40.06;14.29;100801.41;5378588;32;35721;-67
2022/06/03 11:08:15;;;;;;;5.30;2.33;;;;;;;39.39;14.95;100800.16;5376099;32;35459;-73
2022/06/03 11:12:09;;;;;;;3.50;2.42;;;;;;;40.05;14.36;100794.19;5383698;32;35250;-67
2022/06/03 11:15:35;;;;;;;3.85;2.25;;;;;;;39.94;14.45;100780.47;5361677;32;35247;-70
2022/06/03 11:18:38;;;;;;;4.25;1.92;;;;;;;38.76;15.34;100789.78;5381956;32;34222;-67
2022/06/03 11:21:40;;;;;;;3.17;2.08;;;;;;;39.58;14.41;100787.94;5374986;32;34408;-68
2022/06/03 11:24:49;;;;;;;4.72;2.30;;;;;;;40.14;14.35;100786.41;5352415;32;35306;-69
2022/06/03 11:27:56;;;;;;;4.87;1.87;;;;;;;37.89;16.40;100785.47;5381981;32;43533;-73
2022/06/03 11:31:04;;;;;;;3.67;1.85;;;;;;;39.54;14.66;100772.97;5380781;32;34083;-67
2022/06/03 11:34:14;;;;;;;4.90;2.17;;;;;;;40.07;14.01;100766.44;5367571;32;34103;-74
2022/06/03 11:37:19;;;;;;;3.45;2.25;;;;;;;38.33;15.70;100768.91;5386846;32;35008;-72
2022/06/03 11:40:26;;;;;;;2.85;2.00;;;;;;;38.88;15.25;100760.44;5357272;32;44645;-72
2022/06/03 11:43:50;;;;;;;4.30;2.15;;;;;;;41.82;12.43;100753.31;5392046;32;35245;-73
2022/06/03 11:47:05;;;;;;;3.20;2.00;;;;;;;41.90;12.42;100754.78;5401144;32;34041;-74
2022/06/03 11:50:09;;;;;;;6.47;2.10;;;;;;;42.97;11.43;100742.88;5371907;32;34290;-73
2022/06/03 11:53:12;;;;;;;3.45;2.00;;;;;;;41.57;12.68;100734.47;5382408;32;34299;-69
2022/06/03 11:56:18;;;;;;;5.25;2.03;;;;;;;40.22;14.05;100743.88;5381902;32;34143;-69
2022/06/03 11:59:39;;;;;;;2.15;1.70;;;;;;;38.65;15.11;100729.09;5390513;32;44926;-75
2022/06/03 12:03:04;;;;;;;7.93;2.22;;;;;;;40.33;13.64;100730.03;5392662;32;34081;-66
2022/06/03 12:06:12;;;;;;;4.53;1.95;;;;;;;41.34;12.65;100718.19;5380910;32;34112;-74
2022/06/03 12:09:29;;;;;;;3.90;2.20;;;;;;;38.01;15.82;100719.69;5382210;32;35370;-74
2022/06/03 12:16:01;;;;;;;4.40;2.15;;;;;;;34.80;19.24;100719.47;5368518;32;44258;-68
2022/06/03 12:19:04;;;;;;;4.07;2.00;;;;;;;33.36;20.57;100719.63;5384193;32;36953;-72
2022/06/03 12:22:28;;;;;;;6.07;2.78;;;;;;;33.31;20.71;100705.75;5363801;32;33996;-73
2022/06/03 12:25:54;;;;;;;3.08;2.00;;;;;;;33.15;21.09;100709.62;5388012;32;34510;-72
2022/06/03 12:29:30;;;;;;;5.53;2.30;;;;;;;34.45;19.80;100705.16;5394079;32;34085;-75
2022/06/03 12:32:36;;;;;;;2.72;2.08;;;;;;;33.54;20.72;100691.03;5337651;32;35130;-66
2022/06/03 12:35:53;;;;;;;2.50;2.22;;;;;;;33.82;20.35;100689.06;5386414;32;35103;-73
2022/06/03 12:39:08;;;;;;;4.28;2.10;;;;;;;32.49;21.90;100697.38;5366692;32;46051;-74
2022/06/03 12:42:21;;;;;;;3.60;2.00;;;;;;;32.68;21.65;100691.25;5381690;32;35086;-67
2022/06/03 12:45:32;;;;;;;3.90;2.03;;;;;;;33.48;20.74;100683.66;5398239;32;44486;-73
2022/06/03 12:48:35;;;;;;;5.72;2.42;;;;;;;33.84;20.38;100675.22;5353607;32;35050;-68
2022/06/03 12:51:56;;;;;;;5.80;2.47;;;;;;;32.94;21.62;100670.75;5400376;32;35047;-68
2022/06/03 12:55:03;;;;;;;5.55;2.37;;;;;;;32.41;21.98;100659.44;5368101;32;44458;-73
2022/06/03 12:58:12;;;;;;;5.85;2.20;;;;;;;33.49;20.68;100666.25;5370838;32;34194;-73
2022/06/03 13:01:39;;;;;;;5.53;2.28;;;;;;;33.53;20.39;100662.09;5401347;32;35358;-68
2022/06/03 13:04:42;;;;;;;4.22;2.50;;;;;;;33.63;20.26;100666.12;5358107;32;34265;-73
2022/06/03 13:08:00;;;;;;;9.43;3.10;;;;;;;33.57;20.35;100657.94;5382116;32;35918;-72
2022/06/03 13:11:24;;;;;;;4.05;2.75;;;;;;;32.67;21.84;100661.53;5363320;32;34181;-67
2022/06/03 13:14:29;;;;;;;5.25;2.35;;;;;;;32.46;22.04;100656.94;5383111;32;44455;-66
2022/06/03 13:21:10;;;;;;;5.37;2.50;;;;;;;32.50;22.00;100644.66;5359174;32;34310;-73
2022/06/03 13:24:22;;;;;;;5.87;2.40;;;;;;;33.44;20.89;100641.53;5379032;32;35312;-67
2022/06/03 13:27:24;;;;;;;5.15;2.67;;;;;;;33.13;21.47;100640.09;5400782;32;46664;-72
2022/06/03 13:30:35;;;;;;;4.28;2.30;;;;;;;33.04;21.57;100633.09;5383681;32;34941;-68
2022/06/03 13:34:12;;;;;;;7.95;2.35;;;;;;;33.26;21.62;100633.87;5387092;32;35328;-71
2022/06/03 13:37:21;;;;;;;3.30;2.10;;;;;;;32.39;22.42;100635.12;5385320;32;34241;-73
2022/06/03 13:40:26;;;;;;;5.40;2.60;;;;;;;33.32;21.26;100628.44;5361306;32;46705;-68
2022/06/03 13:43:29;;;;;;;3.85;2.70;;;;;;;33.27;21.18;100621.94;5402370;32;34133;-68
2022/06/03 13:46:33;;;;;;;3.17;2.08;;;;;;;33.43;21.20;100624.34;5370305;32;33885;-67
2022/06/03 13:49:36;;;;;;;2.80;2.10;;;;;;;32.62;22.21;100626.75;5386742;32;34101;-70
2022/06/03 13:52:51;;;;;;;5.85;2.10;;;;;;;33.08;21.28;100626.22;5368763;32;35503;-69
2022/06/03 13:56:03;;;;;;;3.78;2.25;;;;;;;32.32;22.22;100623.31;5378113;32;44585;-71
2022/06/03 13:59:14;;;;;;;3.85;2.08;;;;;;;32.60;21.88;100612.50;5372581;32;34113;-71
2022/06/03 14:02:27;;;;;;;6.93;2.17;;;;;;;33.00;21.21;100608.19;5379425;32;34150;-68
2022/06/03 14:05:37;;;;;;;3.28;1.73;;;;;;;32.74;21.54;100603.37;5393350;32;34503;-69
2022/06/03 14:08:42;;;;;;;5.78;1.95;;;;;;;31.40;22.32;100610.44;5357786;32;35282;-69
2022/06/03 14:11:48;;;;;;;7.12;2.00;;;;;;;31.77;22.34;100608.56;5382870;32;34081;-67
2022/06/03 14:14:50;;;;;;;4.15;1.77;;;;;;;32.00;21.78;100608.38;5392914;32;44621;-68
2022/06/03 14:17:57;;;;;;;5.90;2.30;;;;;;;31.49;22.19;100603.88;5371253;32;34208;-69
2022/06/03 14:20:59;;;;;;;4.40;1.70;;;;;;;31.59;22.43;100608.12;5393919;32;34013;-72
2022/06/03 14:24:06;;;;;;;5.75;1.90;;;;;;;31.65;22.23;100610.94;5382368;32;34295;-70
2022/06/03 14:27:21;;;;;;;3.92;1.62;;;;;;;31.13;23.20;100608.38;5383918;32;34935;-67
2022/06/03 14:30:45;;;;;;;5.97;1.95;;;;;;;31.94;22.00;100601.84;5365935;32;46216;-69
2022/06/03 14:33:51;;;;;;;6.25;1.92;;;;;;;32.16;21.79;100593.69;5360079;32;34221;-70
2022/06/03 14:36:55;;;;;;;5.68;1.85;;;;;;;32.34;21.91;100586.78;5370183;32;45822;-68
2022/06/03 14:40:04;;;;;;;4.60;1.70;;;;;;;32.25;21.80;100587.91;5343872;32;34114;-71
2022/06/03 14:43:08;;;;;;;5.20;2.00;;;;;;;32.05;22.18;100586.91;5383353;32;33958;-70
2022/06/03 14:46:18;;;;;;;4.20;2.17;;;;;;;31.79;22.69;100588.31;5369334;32;34020;-71
2022/06/03 14:49:26;;;;;;;7.60;2.12;;;;;;;32.28;22.18;100582.09;5384511;32;45937;-69
2022/06/03 14:52:34;;;;;;;4.43;1.95;;;;;;;32.28;22.24;100579.37;5388514;32;34054;-67
2022/06/03 14:55:40;;;;;;;5.45;2.00;;;;;;;32.64;21.74;100574.84;5371496;32;33833;-70
2022/06/03 14:58:45;;;;;;;4.18;1.90;;;;;;;32.69;21.76;100572.37;5387618;32;35109;-68
2022/06/03 15:01:51;;;;;;;5.37;2.15;;;;;;;31.71;22.83;100553.09;5384253;32;35428;-69
2022/06/03 15:05:19;;;;;;;2.47;1.67;;;;;;;32.76;21.75;100544.16;5375201;32;44933;-70
2022/06/03 15:08:26;;;;;;;7.00;2.40;;;;;;;32.31;21.93;100535.47;5382929;32;44477;-70
2022/06/03 15:11:34;;;;;;;5.40;1.60;;;;;;;31.94;22.48;100541.22;5382446;32;34699;-69
2022/06/03 15:14:38;;;;;;;3.58;1.90;;;;;;;32.16;22.16;100539.31;5400501;32;34282;-66
2022/06/03 15:17:40;;;;;;;5.80;1.90;;;;;;;32.15;22.53;100543.94;5358159;32;35269;-68
2022/06/03 15:20:54;;;;;;;8.18;3.08;;;;;;;31.81;23.06;100525.63;5372181;32;34279;-70
2022/06/03 15:24:00;;;;;;;4.68;2.35;;;;;;;32.46;22.40;100526.38;5379459;32;46673;-68
2022/06/03 15:27:04;;;;;;;5.03;2.35;;;;;;;32.06;22.84;100548.66;5366608;32;34243;-69
2022/06/03 15:30:29;;;;;;;2.67;1.87;;;;;;;32.19;22.78;100544.34;5382724;32;35266;-68
2022/06/03 15:33:38;;;;;;;4.43;1.90;;;;;;;31.67;23.55;100559.94;5383380;32;33070;-67
2022/06/03 15:36:44;;;;;;;2.83;2.10;;;;;;;31.66;23.59;100544.69;5376269;32;34471;-68
2022/06/03 15:39:52;;;;;;;3.67;1.90;;;;;;;31.96;23.06;100541.87;5372748;32;34359;-70
2022/06/03 15:42:57;;;;;;;4.45;1.95;;;;;;;31.88;23.10;100542.00;5382905;32;44516;-68
2022/06/03 15:45:59;;;;;;;4.47;2.22;;;;;;;31.59;23.47;100534.78;5394710;32;34302;-71